EGLC

London City Airport

London, United Kingdom
METAR EGLC 201820Z AUTO 21016G30KT 170V240 9999 NCD 21/14 Q1005
Observed Flight Rules
Sep-20 @ 18:20 UTC (14 minutes ago) Visual Flight Rules
Wind Visibility Clouds
210° at 16 knots
 Gusting to 30 knots
10,000+ meters
  • Clear skies
Temperatures Readings
Current 21°C / 70°F
Dewpoint 14°C / 57°F
Humidity 64%
Altimeter 29.68" Hg
Pressure 1005 hPa
Elevation 5
METAR EGLC 201820Z AUTO 21016G30KT 170V240 9999 NCD 21/14 Q1005
Observed Flight Rules
Sep-20 @ 18:20 UTC
(14 minutes ago)
VFR
Wind Visibility
210° at 16 knots
 Gusting to 30 knots
10,000+ meters
Clouds
  • Clear skies
Temperature Dewpoint
21°C / 70°F 14°C / 57°F
Humidity Altimeter Pressure
64% 29.68" Hg 1005 hPa